createdAt,value
2022-12-20T00:00:13.131Z,1009.37
2022-12-20T00:01:13.099Z,1009.31
2022-12-20T00:02:13.170Z,1009.26
2022-12-20T00:03:13.098Z,1009.21
2022-12-20T00:04:13.062Z,1009.22
2022-12-20T00:05:13.038Z,1009.24
2022-12-20T00:06:13.032Z,1009.19
2022-12-20T00:07:13.016Z,1009.21
2022-12-20T00:08:12.999Z,1009.20
2022-12-20T00:09:12.984Z,1009.17
2022-12-20T00:10:12.968Z,1009.17
2022-12-20T00:11:12.964Z,1009.19
2022-12-20T00:12:12.948Z,1009.18
2022-12-20T00:13:12.932Z,1009.19
2022-12-20T00:14:12.916Z,1009.17
2022-12-20T00:15:12.898Z,1009.07
2022-12-20T00:16:12.886Z,1009.05
2022-12-20T00:17:12.868Z,1008.99
2022-12-20T00:18:12.912Z,1008.99
2022-12-20T00:19:12.843Z,1009.01
2022-12-20T00:20:12.825Z,1009.00
2022-12-20T00:21:12.832Z,1009.04
2022-12-20T00:22:12.797Z,1009.06
2022-12-20T00:23:12.781Z,1009.11
2022-12-20T00:24:12.773Z,1009.14
2022-12-20T00:25:12.760Z,1009.15
2022-12-20T00:26:12.738Z,1009.15
2022-12-20T00:27:12.727Z,1009.17
2022-12-20T00:28:12.711Z,1009.10
2022-12-20T00:29:12.706Z,1009.02
2022-12-20T00:30:12.684Z,1008.96
2022-12-20T00:31:12.740Z,1008.91
2022-12-20T00:32:12.656Z,1008.92
2022-12-20T00:33:12.641Z,1008.92
2022-12-20T00:34:12.632Z,1008.94
2022-12-20T00:35:12.610Z,1008.95
2022-12-20T00:36:12.607Z,1008.98
2022-12-20T00:37:12.583Z,1008.94
2022-12-20T00:38:12.602Z,1008.92
2022-12-20T00:39:12.563Z,1008.91
2022-12-20T00:40:12.550Z,1008.95
2022-12-20T00:41:12.532Z,1008.97
2022-12-20T00:42:12.509Z,1008.95
2022-12-20T00:43:12.510Z,1008.94
2022-12-20T00:44:12.490Z,1008.93
2022-12-20T00:45:12.469Z,1008.94
2022-12-20T00:46:12.471Z,1008.91
2022-12-20T00:47:12.524Z,1008.92
2022-12-20T00:48:12.427Z,1008.92
2022-12-20T00:49:12.431Z,1008.90
2022-12-20T00:50:12.397Z,1008.92
2022-12-20T00:51:12.389Z,1008.89
2022-12-20T00:52:12.370Z,1008.93
2022-12-20T00:53:12.358Z,1008.85
2022-12-20T00:54:12.338Z,1008.86
2022-12-20T00:55:12.325Z,1008.86
2022-12-20T00:56:12.311Z,1008.89
2022-12-20T00:57:12.307Z,1008.86
2022-12-20T00:58:12.285Z,1008.81
2022-12-20T00:59:12.272Z,1008.89
2022-12-20T01:00:12.250Z,1008.90
2022-12-20T01:01:12.295Z,1008.90
2022-12-20T01:02:12.416Z,1008.90
2022-12-20T01:03:12.381Z,1008.92
2022-12-20T01:04:12.200Z,1008.90
2022-12-20T01:05:12.188Z,1008.97
2022-12-20T01:06:12.160Z,1008.97
2022-12-20T01:07:12.172Z,1009.02
2022-12-20T01:08:12.141Z,1009.04
2022-12-20T01:09:12.138Z,1009.03
2022-12-20T01:10:12.115Z,1009.01
2022-12-20T01:11:12.100Z,1009.03
2022-12-20T01:12:12.085Z,1008.99
2022-12-20T01:13:12.073Z,1008.95
2022-12-20T01:14:12.080Z,1008.95
2022-12-20T01:15:12.047Z,1008.86
2022-12-20T01:16:12.090Z,1008.83
2022-12-20T01:17:12.016Z,1008.83
2022-12-20T01:18:12.027Z,1008.85
2022-12-20T01:19:12.171Z,1008.80
2022-12-20T01:20:11.970Z,1008.78
2022-12-20T01:21:11.954Z,1008.84
2022-12-20T01:22:11.945Z,1008.87
2022-12-20T01:23:11.930Z,1008.84
2022-12-20T01:24:11.911Z,1008.83
2022-12-20T01:25:11.925Z,1008.82
2022-12-20T01:26:11.883Z,1008.83
2022-12-20T01:27:11.897Z,1008.79
2022-12-20T01:28:11.869Z,1008.80
2022-12-20T01:29:11.867Z,1008.86
2022-12-20T01:30:11.900Z,1008.80
2022-12-20T01:31:11.977Z,1008.86
2022-12-20T01:32:11.809Z,1008.87
2022-12-20T01:33:11.820Z,1008.91
2022-12-20T01:34:11.797Z,1008.88
2022-12-20T01:35:11.774Z,1008.90
2022-12-20T01:36:11.771Z,1008.89
2022-12-20T01:37:11.726Z,1008.91
2022-12-20T01:38:11.715Z,1008.89
2022-12-20T01:39:11.715Z,1008.86
2022-12-20T01:40:11.681Z,1008.81
2022-12-20T01:41:11.671Z,1008.78
2022-12-20T01:42:11.666Z,1008.78
2022-12-20T01:43:11.643Z,1008.77
2022-12-20T01:44:11.625Z,1008.78
2022-12-20T01:45:11.616Z,1008.72
2022-12-20T01:46:11.646Z,1008.64
2022-12-20T01:47:11.587Z,1008.67
2022-12-20T01:48:11.571Z,1008.69
2022-12-20T01:49:11.559Z,1008.67
2022-12-20T01:50:11.543Z,1008.60
2022-12-20T01:51:11.529Z,1008.58
2022-12-20T01:52:11.512Z,1008.67
2022-12-20T01:53:11.499Z,1008.71
2022-12-20T01:54:11.496Z,1008.62
2022-12-20T01:55:11.487Z,1008.68
2022-12-20T01:56:11.466Z,1008.63
2022-12-20T01:57:11.458Z,1008.60
2022-12-20T01:58:11.431Z,1008.50
2022-12-20T01:59:11.415Z,1008.48
2022-12-20T02:00:11.402Z,1008.45
2022-12-20T02:01:11.493Z,1008.44
2022-12-20T02:02:11.600Z,1008.41
2022-12-20T02:03:11.525Z,1008.46
2022-12-20T02:04:11.343Z,1008.49
2022-12-20T02:05:11.336Z,1008.48
2022-12-20T02:06:11.316Z,1008.43
2022-12-20T02:07:11.300Z,1008.47
2022-12-20T02:08:11.287Z,1008.44
2022-12-20T02:09:11.295Z,1008.40
2022-12-20T02:10:11.261Z,1008.40
2022-12-20T02:11:11.253Z,1008.43
2022-12-20T02:12:11.232Z,1008.35
2022-12-20T02:13:11.217Z,1008.37
2022-12-20T02:14:11.200Z,1008.36
2022-12-20T02:15:11.189Z,1008.34
2022-12-20T02:16:11.243Z,1008.32
2022-12-20T02:17:11.225Z,1008.35
2022-12-20T02:18:11.144Z,1008.36
2022-12-20T02:19:11.130Z,1008.31
2022-12-20T02:20:11.128Z,1008.26
2022-12-20T02:21:11.103Z,1008.25
2022-12-20T02:22:11.092Z,1008.21
2022-12-20T02:23:11.077Z,1008.17
2022-12-20T02:24:11.088Z,1008.13
2022-12-20T02:25:11.044Z,1008.19
2022-12-20T02:26:11.031Z,1008.21
2022-12-20T02:27:11.024Z,1008.16
2022-12-20T02:28:11.005Z,1008.16
2022-12-20T02:29:10.995Z,1008.13
2022-12-20T02:30:10.978Z,1008.13
2022-12-20T02:31:10.964Z,1008.12
2022-12-20T02:32:10.993Z,1008.05
2022-12-20T02:33:10.937Z,1008.04
2022-12-20T02:34:10.913Z,1008.00
2022-12-20T02:35:10.939Z,1007.97
2022-12-20T02:36:10.900Z,1007.99
2022-12-20T02:37:10.915Z,1007.90
2022-12-20T02:38:10.862Z,1007.93
2022-12-20T02:39:10.847Z,1007.95
2022-12-20T02:40:10.834Z,1007.99
2022-12-20T02:41:10.817Z,1007.98
2022-12-20T02:42:10.808Z,1008.00
2022-12-20T02:43:10.792Z,1008.02
2022-12-20T02:44:10.778Z,1008.04
2022-12-20T02:45:10.766Z,1008.00
2022-12-20T02:46:10.821Z,1008.00
2022-12-20T02:47:10.735Z,1007.99
2022-12-20T02:48:10.730Z,1007.99
2022-12-20T02:49:10.701Z,1007.99
2022-12-20T02:50:10.690Z,1007.98
2022-12-20T02:51:10.678Z,1007.94
2022-12-20T02:52:10.660Z,1007.82
2022-12-20T02:53:10.646Z,1007.79
2022-12-20T02:54:10.630Z,1007.73
2022-12-20T02:55:10.620Z,1007.76
2022-12-20T02:56:10.612Z,1007.81
2022-12-20T02:57:10.592Z,1007.83
2022-12-20T02:58:10.572Z,1007.85
2022-12-20T02:59:10.559Z,1007.83
2022-12-20T03:00:10.555Z,1007.86
2022-12-20T03:01:10.571Z,1007.85
2022-12-20T03:02:10.697Z,1007.91
2022-12-20T03:03:10.698Z,1007.98
2022-12-20T03:04:10.494Z,1007.99
2022-12-20T03:05:10.474Z,1008.01
2022-12-20T03:06:10.462Z,1008.03
2022-12-20T03:07:10.452Z,1008.04
2022-12-20T03:08:10.438Z,1008.00
2022-12-20T03:09:10.418Z,1008.02
2022-12-20T03:10:10.409Z,1008.00
2022-12-20T03:11:10.393Z,1007.93
2022-12-20T03:12:10.373Z,1007.91
2022-12-20T03:13:17.522Z,1007.79
2022-12-20T03:15:14.304Z,1007.79
2022-12-20T03:16:14.361Z,1007.72
2022-12-20T03:18:18.206Z,1007.73
2022-12-20T03:19:18.194Z,1007.73
2022-12-20T03:21:22.126Z,1007.81
2022-12-20T03:22:22.093Z,1007.80
2022-12-20T03:24:14.971Z,1007.81
2022-12-20T03:25:14.935Z,1007.78
2022-12-20T03:27:18.911Z,1007.78
2022-12-20T03:28:18.891Z,1007.70
2022-12-20T03:30:22.826Z,1007.66
2022-12-20T03:31:22.877Z,1007.71
2022-12-20T03:33:26.827Z,1007.71
2022-12-20T03:34:26.720Z,1007.65
2022-12-20T03:35:26.762Z,1007.67
2022-12-20T03:36:26.686Z,1007.65
2022-12-20T03:37:26.670Z,1007.66
2022-12-20T03:38:26.666Z,1007.58
2022-12-20T03:39:26.640Z,1007.63
2022-12-20T03:40:26.637Z,1007.53
2022-12-20T03:41:26.614Z,1007.55
2022-12-20T03:42:26.602Z,1007.51
2022-12-20T03:43:26.586Z,1007.56
2022-12-20T03:44:26.620Z,1007.51
2022-12-20T03:45:26.555Z,1007.46
2022-12-20T03:46:26.592Z,1007.54
2022-12-20T03:47:26.534Z,1007.48
2022-12-20T03:48:26.535Z,1007.54
2022-12-20T03:49:26.499Z,1007.53
2022-12-20T03:50:26.487Z,1007.47
2022-12-20T03:51:26.485Z,1007.54
2022-12-20T03:52:26.459Z,1007.57
2022-12-20T03:53:26.445Z,1007.60
2022-12-20T03:54:26.429Z,1007.66
2022-12-20T03:55:26.419Z,1007.79
2022-12-20T03:56:26.405Z,1007.75
2022-12-20T03:57:26.402Z,1007.76
2022-12-20T03:58:26.383Z,1007.77
2022-12-20T03:59:26.355Z,1007.83
2022-12-20T04:00:26.354Z,1007.84
2022-12-20T04:01:26.414Z,1007.83
2022-12-20T04:02:26.581Z,1007.83
2022-12-20T04:03:26.364Z,1007.71
2022-12-20T04:04:26.287Z,1007.62
2022-12-20T04:05:26.279Z,1007.53
2022-12-20T04:06:26.290Z,1007.58
2022-12-20T04:07:26.255Z,1007.63
2022-12-20T04:08:26.241Z,1007.66
2022-12-20T04:09:26.216Z,1007.66
2022-12-20T04:10:26.202Z,1007.75
2022-12-20T04:11:26.210Z,1007.75
2022-12-20T04:12:26.179Z,1007.79
2022-12-20T04:13:26.163Z,1007.76
2022-12-20T04:14:26.156Z,1007.69
2022-12-20T04:15:26.153Z,1007.68
2022-12-20T04:16:26.159Z,1007.75
2022-12-20T04:17:26.106Z,1007.79
2022-12-20T04:18:26.096Z,1007.77
2022-12-20T04:19:26.081Z,1007.80
2022-12-20T04:20:26.064Z,1007.82
2022-12-20T04:21:26.069Z,1007.80
2022-12-20T04:22:26.048Z,1007.75
2022-12-20T04:23:26.019Z,1007.75
2022-12-20T04:24:26.006Z,1007.72
2022-12-20T04:25:26.002Z,1007.71
2022-12-20T04:26:25.991Z,1007.67
2022-12-20T04:27:25.969Z,1007.66
2022-12-20T04:28:25.964Z,1007.68
2022-12-20T04:29:25.946Z,1007.63
2022-12-20T04:30:25.921Z,1007.60
2022-12-20T04:31:25.945Z,1007.54
2022-12-20T04:32:25.910Z,1007.45
2022-12-20T04:33:25.887Z,1007.42
2022-12-20T04:34:25.866Z,1007.35
2022-12-20T04:35:25.852Z,1007.36
2022-12-20T04:36:25.834Z,1007.28
2022-12-20T04:37:25.823Z,1007.30
2022-12-20T04:38:25.812Z,1007.26
2022-12-20T04:39:25.791Z,1007.30
2022-12-20T04:40:25.785Z,1007.23
2022-12-20T04:41:25.765Z,1007.17
2022-12-20T04:42:25.755Z,1007.10
2022-12-20T04:43:25.736Z,1007.12
2022-12-20T04:44:25.857Z,1007.08
2022-12-20T04:45:25.708Z,1007.10
2022-12-20T04:46:25.723Z,1007.11
2022-12-20T04:47:25.695Z,1007.18
2022-12-20T04:48:57.275Z,1007.21
2022-12-20T04:49:25.649Z,1007.23
2022-12-20T04:50:25.647Z,1007.28
2022-12-20T04:51:25.622Z,1007.29
2022-12-20T04:52:25.611Z,1007.31
2022-12-20T04:53:25.604Z,1007.34
2022-12-20T04:54:25.579Z,1007.33
2022-12-20T04:55:25.568Z,1007.33
2022-12-20T04:56:25.549Z,1007.27
2022-12-20T04:57:25.541Z,1007.30
2022-12-20T04:58:25.523Z,1007.32
2022-12-20T04:59:25.523Z,1007.23
2022-12-20T05:00:25.500Z,1007.23
2022-12-20T05:01:25.702Z,1007.26
2022-12-20T05:02:25.600Z,1007.21
2022-12-20T05:03:25.482Z,1007.23
2022-12-20T05:04:25.438Z,1007.25
2022-12-20T05:05:25.426Z,1007.21
2022-12-20T05:06:25.422Z,1007.23
2022-12-20T05:07:25.426Z,1007.27
2022-12-20T05:08:25.381Z,1007.33
2022-12-20T05:09:25.371Z,1007.30
2022-12-20T05:10:25.355Z,1007.33
2022-12-20T05:11:25.341Z,1007.25
2022-12-20T05:12:25.330Z,1007.26
2022-12-20T05:13:25.315Z,1007.18
2022-12-20T05:14:25.295Z,1007.18
2022-12-20T05:15:25.288Z,1007.19
2022-12-20T05:16:25.300Z,1007.26
2022-12-20T05:17:26.106Z,1007.19
2022-12-20T05:18:25.241Z,1007.26
2022-12-20T05:19:25.225Z,1007.25
2022-12-20T05:20:25.263Z,1007.25
2022-12-20T05:21:25.199Z,1007.21
2022-12-20T05:22:25.185Z,1007.30
2022-12-20T05:23:25.169Z,1007.27
2022-12-20T05:24:25.156Z,1007.30
2022-12-20T05:25:25.152Z,1007.35
2022-12-20T05:26:25.125Z,1007.35
2022-12-20T05:27:25.119Z,1007.37
2022-12-20T05:28:25.105Z,1007.42
2022-12-20T05:29:25.086Z,1007.39
2022-12-20T05:30:25.074Z,1007.40
2022-12-20T05:31:25.091Z,1007.32
2022-12-20T05:32:25.047Z,1007.26
2022-12-20T05:33:29.000Z,1007.20
2022-12-20T05:34:25.023Z,1007.21
2022-12-20T05:35:25.009Z,1007.23
2022-12-20T05:36:24.984Z,1007.24
2022-12-20T05:37:24.971Z,1007.21
2022-12-20T05:38:24.975Z,1007.29
2022-12-20T05:39:24.946Z,1007.27
2022-12-20T05:40:24.931Z,1007.28
2022-12-20T05:41:24.914Z,1007.27
2022-12-20T05:42:24.901Z,1007.22
2022-12-20T05:43:24.886Z,1007.23
2022-12-20T05:44:24.876Z,1007.23
2022-12-20T05:45:24.866Z,1007.25
2022-12-20T05:46:24.912Z,1007.21
2022-12-20T05:47:24.832Z,1007.17
2022-12-20T05:48:24.821Z,1007.10
2022-12-20T05:49:24.803Z,1007.03
2022-12-20T05:50:24.795Z,1006.94
2022-12-20T05:51:24.788Z,1006.92
2022-12-20T05:52:24.761Z,1006.94
2022-12-20T05:53:24.748Z,1006.94
2022-12-20T05:54:24.741Z,1006.98
2022-12-20T05:55:24.719Z,1007.00
2022-12-20T05:56:24.701Z,1006.97
2022-12-20T05:57:24.691Z,1006.93
2022-12-20T05:58:24.684Z,1006.95
2022-12-20T05:59:24.663Z,1006.95
2022-12-20T06:00:24.651Z,1006.95
2022-12-20T06:01:24.647Z,1006.95
2022-12-20T06:02:24.742Z,1006.95
2022-12-20T06:03:24.665Z,1006.92
2022-12-20T06:04:24.640Z,1006.92
2022-12-20T06:05:24.582Z,1006.89
2022-12-20T06:06:24.561Z,1006.93
2022-12-20T06:07:24.559Z,1006.83
2022-12-20T06:08:24.534Z,1006.76
2022-12-20T06:09:24.520Z,1006.71
2022-12-20T06:10:24.511Z,1006.62
2022-12-20T06:11:29.612Z,1006.52
2022-12-20T06:12:24.479Z,1006.58
2022-12-20T06:13:24.466Z,1006.52
2022-12-20T06:14:24.445Z,1006.62
2022-12-20T06:15:24.440Z,1006.64
2022-12-20T06:16:24.516Z,1006.68
2022-12-20T06:17:24.414Z,1006.68
2022-12-20T06:18:24.393Z,1006.71
2022-12-20T06:19:24.386Z,1006.67
2022-12-20T06:20:24.362Z,1006.72
2022-12-20T06:21:24.353Z,1006.70
2022-12-20T06:22:24.336Z,1006.69
2022-12-20T06:23:24.324Z,1006.68
2022-12-20T06:24:24.309Z,1006.65
2022-12-20T06:25:24.294Z,1006.62
2022-12-20T06:26:24.284Z,1006.66
2022-12-20T06:27:24.269Z,1006.66
2022-12-20T06:28:24.254Z,1006.75
2022-12-20T06:29:24.239Z,1006.73
2022-12-20T06:30:28.849Z,1006.82
2022-12-20T06:31:24.265Z,1006.85
2022-12-20T06:32:24.195Z,1006.84
2022-12-20T06:33:24.183Z,1006.87
2022-12-20T06:34:24.170Z,1006.90
2022-12-20T06:35:24.155Z,1006.89
2022-12-20T06:36:24.137Z,1006.94
2022-12-20T06:37:24.126Z,1006.97
2022-12-20T06:38:24.114Z,1006.98
2022-12-20T06:39:24.095Z,1007.03
2022-12-20T06:40:24.099Z,1006.98
2022-12-20T06:41:24.067Z,1007.02
2022-12-20T06:42:24.057Z,1006.99
2022-12-20T06:43:24.046Z,1007.03
2022-12-20T06:44:24.023Z,1007.00
2022-12-20T06:45:24.008Z,1007.04
2022-12-20T06:46:24.031Z,1007.07
2022-12-20T06:47:23.979Z,1007.06
2022-12-20T06:48:23.967Z,1007.09
2022-12-20T06:49:23.954Z,1007.10
2022-12-20T06:50:23.944Z,1007.05
2022-12-20T06:51:23.927Z,1007.05
2022-12-20T06:52:23.937Z,1007.08
2022-12-20T06:53:23.899Z,1007.04
2022-12-20T06:54:23.883Z,1007.11
2022-12-20T06:55:23.875Z,1007.08
2022-12-20T06:56:23.855Z,1007.05
2022-12-20T06:57:23.844Z,1007.09
2022-12-20T06:58:23.829Z,1007.07
2022-12-20T06:59:23.819Z,1007.06
2022-12-20T07:00:23.798Z,1007.05
2022-12-20T07:01:23.882Z,1007.09
2022-12-20T07:02:27.283Z,1007.06
2022-12-20T07:03:23.878Z,1007.06
2022-12-20T07:04:23.743Z,1007.01
2022-12-20T07:05:23.738Z,1007.03
2022-12-20T07:06:23.714Z,1007.00
2022-12-20T07:07:23.709Z,1007.00
2022-12-20T07:08:23.690Z,1006.98
2022-12-20T07:09:23.675Z,1006.99
2022-12-20T07:10:23.661Z,1006.97
2022-12-20T07:11:23.648Z,1006.98
2022-12-20T07:12:23.631Z,1006.97
2022-12-20T07:13:23.616Z,1006.90
2022-12-20T07:14:23.603Z,1006.87
2022-12-20T07:15:23.609Z,1006.85
2022-12-20T07:16:23.655Z,1006.81
2022-12-20T07:17:23.570Z,1006.78
2022-12-20T07:18:23.549Z,1006.78
2022-12-20T07:19:23.532Z,1006.76
2022-12-20T07:20:23.521Z,1006.74
2022-12-20T07:21:23.514Z,1006.75
2022-12-20T07:22:23.514Z,1006.74
2022-12-20T07:23:23.480Z,1006.72
2022-12-20T07:24:23.460Z,1006.74
2022-12-20T07:25:23.458Z,1006.74
2022-12-20T07:26:23.433Z,1006.73
2022-12-20T07:27:23.421Z,1006.73
2022-12-20T07:28:23.408Z,1006.69
2022-12-20T07:29:23.392Z,1006.67
2022-12-20T07:30:23.381Z,1006.59
2022-12-20T07:31:23.436Z,1006.63
2022-12-20T07:32:23.370Z,1006.61
2022-12-20T07:33:23.348Z,1006.60
2022-12-20T07:34:23.320Z,1006.66
2022-12-20T07:35:23.310Z,1006.61
2022-12-20T07:36:23.297Z,1006.65
2022-12-20T07:37:23.282Z,1006.71
2022-12-20T07:38:23.265Z,1006.64
2022-12-20T07:39:23.252Z,1006.71
2022-12-20T07:40:23.235Z,1006.73
2022-12-20T07:41:23.224Z,1006.74
2022-12-20T07:42:23.210Z,1006.70
2022-12-20T07:43:23.198Z,1006.76
2022-12-20T07:44:23.177Z,1006.74
2022-12-20T07:45:23.170Z,1006.76
2022-12-20T07:46:23.181Z,1006.71
2022-12-20T07:47:23.150Z,1006.70
2022-12-20T07:48:23.137Z,1006.74
2022-12-20T07:49:23.153Z,1006.83
2022-12-20T07:50:23.108Z,1006.84
2022-12-20T07:51:23.083Z,1006.76
2022-12-20T07:52:23.071Z,1006.73
2022-12-20T07:53:23.056Z,1006.77
2022-12-20T07:54:23.039Z,1006.79
2022-12-20T07:55:23.032Z,1006.70
2022-12-20T07:56:23.035Z,1006.69
2022-12-20T07:57:23.005Z,1006.62
2022-12-20T07:58:23.019Z,1006.59
2022-12-20T07:59:22.971Z,1006.56
2022-12-20T08:00:22.960Z,1006.54
2022-12-20T08:01:23.104Z,1006.49
2022-12-20T08:02:23.054Z,1006.44
2022-12-20T08:03:23.022Z,1006.45
2022-12-20T08:04:22.900Z,1006.44
2022-12-20T08:05:22.893Z,1006.43
2022-12-20T08:06:22.872Z,1006.44
2022-12-20T08:07:22.861Z,1006.41
2022-12-20T08:08:22.847Z,1006.44
2022-12-20T08:09:22.831Z,1006.39
2022-12-20T08:10:22.818Z,1006.32
2022-12-20T08:11:22.819Z,1006.40
2022-12-20T08:12:22.794Z,1006.44
2022-12-20T08:13:22.776Z,1006.46
2022-12-20T08:14:22.761Z,1006.47
2022-12-20T08:15:22.754Z,1006.47
2022-12-20T08:16:22.790Z,1006.47
2022-12-20T08:17:22.727Z,1006.45
2022-12-20T08:18:22.705Z,1006.43
2022-12-20T08:19:28.264Z,1006.37
2022-12-20T08:20:22.687Z,1006.39
2022-12-20T08:21:22.674Z,1006.35
2022-12-20T08:22:22.651Z,1006.37
2022-12-20T08:23:22.640Z,1006.44
2022-12-20T08:24:22.623Z,1006.46
2022-12-20T08:25:22.641Z,1006.48
2022-12-20T08:26:22.603Z,1006.51
2022-12-20T08:27:22.614Z,1006.52
2022-12-20T08:28:22.568Z,1006.48
2022-12-20T08:29:22.553Z,1006.51
2022-12-20T08:30:22.537Z,1006.52
2022-12-20T08:31:22.603Z,1006.53
2022-12-20T08:32:22.514Z,1006.46
2022-12-20T08:33:22.510Z,1006.51
2022-12-20T08:34:22.487Z,1006.43
2022-12-20T08:35:22.473Z,1006.33
2022-12-20T08:36:22.455Z,1006.33
2022-12-20T08:37:22.443Z,1006.30
2022-12-20T08:38:22.427Z,1006.21
2022-12-20T08:39:22.421Z,1006.15
2022-12-20T08:40:22.408Z,1006.11
2022-12-20T08:41:22.390Z,1006.02
2022-12-20T08:42:22.393Z,1006.02
2022-12-20T08:43:22.368Z,1006.07
2022-12-20T08:44:22.353Z,1005.99
2022-12-20T08:45:22.325Z,1005.99
2022-12-20T08:46:22.393Z,1006.02
2022-12-20T08:47:22.309Z,1006.10
2022-12-20T08:48:22.282Z,1006.12
2022-12-20T08:49:22.277Z,1006.15
2022-12-20T08:50:22.268Z,1006.22
2022-12-20T08:51:22.338Z,1006.28
2022-12-20T08:52:22.272Z,1006.33
2022-12-20T08:53:22.232Z,1006.41
2022-12-20T08:54:22.210Z,1006.44
2022-12-20T08:55:27.704Z,1006.43
2022-12-20T08:56:22.181Z,1006.41
2022-12-20T08:57:22.178Z,1006.38
2022-12-20T08:58:22.153Z,1006.42
2022-12-20T08:59:22.142Z,1006.41
2022-12-20T09:00:22.131Z,1006.40
2022-12-20T09:01:22.273Z,1006.42
2022-12-20T09:02:22.363Z,1006.44
2022-12-20T09:03:22.214Z,1006.45
2022-12-20T09:04:22.071Z,1006.46
2022-12-20T09:05:22.058Z,1006.43
2022-12-20T09:06:22.040Z,1006.40
2022-12-20T09:07:22.028Z,1006.39
2022-12-20T09:08:22.025Z,1006.41
2022-12-20T09:09:22.022Z,1006.38
2022-12-20T09:10:22.003Z,1006.36
2022-12-20T09:11:21.990Z,1006.29
2022-12-20T09:12:21.973Z,1006.35
2022-12-20T09:13:29.199Z,1006.41
2022-12-20T09:15:25.920Z,1006.41
2022-12-20T09:16:25.957Z,1006.45
2022-12-20T09:18:29.803Z,1006.45
2022-12-20T09:19:29.778Z,1006.43
2022-12-20T09:21:33.716Z,1006.52
2022-12-20T09:22:33.718Z,1006.52
2022-12-20T09:24:26.629Z,1006.50
2022-12-20T09:25:26.607Z,1006.46
2022-12-20T09:27:30.551Z,1006.46
2022-12-20T09:28:30.522Z,1006.47
2022-12-20T09:30:34.448Z,1006.48
2022-12-20T09:31:34.497Z,1006.53
2022-12-20T09:33:38.399Z,1006.52
2022-12-20T09:34:38.366Z,1006.45
2022-12-20T09:36:42.352Z,1006.47
2022-12-20T09:37:42.319Z,1006.34
2022-12-20T09:39:46.256Z,1006.24
2022-12-20T09:40:46.226Z,1006.18
2022-12-20T09:42:50.179Z,1006.14
2022-12-20T09:43:50.165Z,1006.17
2022-12-20T09:45:54.167Z,1006.23
2022-12-20T09:46:54.131Z,1006.21
2022-12-20T09:48:58.018Z,1006.14
2022-12-20T09:49:57.971Z,1006.10
2022-12-20T09:50:57.958Z,1006.05
2022-12-20T09:51:57.948Z,1006.06
2022-12-20T09:52:57.966Z,1006.12
2022-12-20T09:53:57.927Z,1006.10
2022-12-20T09:54:57.908Z,1006.05
2022-12-20T09:55:57.898Z,1006.06
2022-12-20T09:56:57.878Z,1006.11
2022-12-20T09:57:57.866Z,1006.10
2022-12-20T09:58:57.852Z,1006.12
2022-12-20T09:59:57.835Z,1006.10
2022-12-20T10:00:57.827Z,1006.12
2022-12-20T10:02:07.934Z,1006.11
2022-12-20T10:03:08.254Z,1006.05
2022-12-20T10:03:57.904Z,1006.06
2022-12-20T10:04:57.914Z,1006.06
2022-12-20T10:05:57.980Z,1006.07
2022-12-20T10:06:57.746Z,1006.04
2022-12-20T10:07:57.731Z,1006.02
2022-12-20T10:08:57.706Z,1005.99
2022-12-20T10:09:57.708Z,1005.98
2022-12-20T10:10:57.713Z,1005.99
2022-12-20T10:11:57.678Z,1005.99
2022-12-20T10:12:57.667Z,1006.04
2022-12-20T10:13:57.650Z,1006.04
2022-12-20T10:14:57.633Z,1006.02
2022-12-20T10:15:57.660Z,1006.01
2022-12-20T10:16:57.623Z,1006.06
2022-12-20T10:17:57.603Z,1006.09
2022-12-20T10:18:57.585Z,1006.09
2022-12-20T10:19:57.582Z,1006.14
2022-12-20T10:20:57.553Z,1006.15
2022-12-20T10:21:57.539Z,1006.15
2022-12-20T10:22:57.536Z,1006.10
2022-12-20T10:23:57.514Z,1006.14
2022-12-20T10:24:57.497Z,1006.06
2022-12-20T10:25:57.488Z,1006.04
2022-12-20T10:26:57.477Z,1006.00
2022-12-20T10:27:57.467Z,1006.01
2022-12-20T10:28:57.450Z,1005.98
2022-12-20T10:29:57.440Z,1006.03
2022-12-20T10:30:57.451Z,1006.05
2022-12-20T10:31:57.410Z,1006.01
2022-12-20T10:32:57.397Z,1006.01
2022-12-20T10:33:57.391Z,1005.92
2022-12-20T10:34:57.362Z,1005.92
2022-12-20T10:35:57.354Z,1005.88
2022-12-20T10:36:57.343Z,1005.92
2022-12-20T10:38:07.085Z,1005.94
2022-12-20T10:38:57.353Z,1005.96
2022-12-20T10:40:02.029Z,1005.99
2022-12-20T10:41:23.773Z,1006.00
2022-12-20T10:41:57.271Z,1006.06
2022-12-20T10:42:57.263Z,1006.02
2022-12-20T10:43:57.252Z,1006.04
2022-12-20T10:44:57.226Z,1006.04
2022-12-20T10:45:57.220Z,1006.06
2022-12-20T10:46:57.282Z,1006.02
2022-12-20T10:47:57.195Z,1006.04
2022-12-20T10:48:57.204Z,1006.05
2022-12-20T10:49:57.165Z,1005.98
2022-12-20T10:50:57.163Z,1005.94
2022-12-20T10:51:57.157Z,1005.94
2022-12-20T10:52:57.132Z,1005.93
2022-12-20T10:53:57.137Z,1005.96
2022-12-20T10:54:57.104Z,1005.89
2022-12-20T10:55:57.098Z,1005.88
2022-12-20T10:56:57.081Z,1005.84
2022-12-20T10:57:57.064Z,1005.89
2022-12-20T10:58:57.053Z,1005.82
2022-12-20T10:59:57.031Z,1005.84
2022-12-20T11:00:57.019Z,1005.81
2022-12-20T11:01:57.279Z,1005.80
2022-12-20T11:02:57.148Z,1005.82
2022-12-20T11:03:57.094Z,1005.82
2022-12-20T11:04:56.957Z,1005.81
2022-12-20T11:05:56.974Z,1005.82
2022-12-20T11:06:56.941Z,1005.81
2022-12-20T11:09:00.730Z,1005.72
2022-12-20T11:09:56.913Z,1005.77
2022-12-20T11:10:56.887Z,1005.72
2022-12-20T11:11:56.923Z,1005.71
2022-12-20T11:12:56.894Z,1005.76
2022-12-20T11:13:56.867Z,1005.69
2022-12-20T11:14:56.831Z,1005.69
2022-12-20T11:15:56.993Z,1005.68
2022-12-20T11:16:56.817Z,1005.68
2022-12-20T11:17:56.801Z,1005.68
2022-12-20T11:18:56.795Z,1005.72
2022-12-20T11:19:56.769Z,1005.76
2022-12-20T11:20:56.753Z,1005.72
2022-12-20T11:21:56.744Z,1005.83
2022-12-20T11:22:56.742Z,1005.74
2022-12-20T11:23:56.723Z,1005.76
2022-12-20T11:24:56.700Z,1005.73
2022-12-20T11:25:56.701Z,1005.69
2022-12-20T11:26:56.691Z,1005.71
2022-12-20T11:27:56.669Z,1005.73
2022-12-20T11:28:56.663Z,1005.73
2022-12-20T11:29:56.639Z,1005.74
2022-12-20T11:30:56.783Z,1005.70
2022-12-20T11:31:56.678Z,1005.61
2022-12-20T11:32:56.603Z,1005.55
2022-12-20T11:33:56.590Z,1005.56
2022-12-20T11:34:56.576Z,1005.54
2022-12-20T11:35:56.563Z,1005.47
2022-12-20T11:36:56.543Z,1005.44
2022-12-20T11:37:56.541Z,1005.40
2022-12-20T11:38:56.531Z,1005.34
2022-12-20T11:39:56.520Z,1005.33
2022-12-20T11:40:56.497Z,1005.28
2022-12-20T11:41:56.493Z,1005.30
2022-12-20T11:42:56.485Z,1005.31
2022-12-20T11:44:23.797Z,1005.33
2022-12-20T11:45:06.622Z,1005.35
2022-12-20T11:45:56.436Z,1005.36
2022-12-20T11:46:56.479Z,1005.34
2022-12-20T11:47:56.412Z,1005.31
2022-12-20T11:48:56.399Z,1005.33
2022-12-20T11:49:56.381Z,1005.35
2022-12-20T11:50:56.373Z,1005.37
2022-12-20T11:51:56.360Z,1005.33
2022-12-20T11:52:56.351Z,1005.24
2022-12-20T11:53:56.337Z,1005.20
2022-12-20T11:54:56.317Z,1005.15
2022-12-20T11:55:56.304Z,1005.15
2022-12-20T11:56:56.293Z,1005.15
2022-12-20T11:58:17.362Z,1005.14
2022-12-20T11:58:56.276Z,1005.11
2022-12-20T11:59:56.287Z,1005.07
2022-12-20T12:00:56.242Z,1005.08
2022-12-20T12:01:56.298Z,1005.03
2022-12-20T12:02:58.645Z,1005.10
2022-12-20T12:03:56.213Z,1005.05
2022-12-20T12:04:56.250Z,1005.02
2022-12-20T12:05:56.209Z,1004.99
2022-12-20T12:06:56.195Z,1005.03
2022-12-20T12:07:56.168Z,1004.98
2022-12-20T12:08:56.139Z,1005.05
2022-12-20T12:09:56.149Z,1005.10
2022-12-20T12:10:56.113Z,1005.02
2022-12-20T12:12:06.756Z,1005.04
2022-12-20T12:12:56.087Z,1005.12
2022-12-20T12:13:56.077Z,1005.17
2022-12-20T12:14:56.063Z,1005.03
2022-12-20T12:15:56.050Z,1005.06
2022-12-20T12:16:56.089Z,1004.95
2022-12-20T12:17:56.026Z,1004.96
2022-12-20T12:18:56.012Z,1004.87
2022-12-20T12:19:56.000Z,1004.90
2022-12-20T12:20:55.983Z,1004.93
2022-12-20T12:21:55.973Z,1004.87
2022-12-20T12:22:55.961Z,1004.93
2022-12-20T12:23:55.947Z,1004.96
2022-12-20T12:24:55.952Z,1004.88
2022-12-20T12:25:55.935Z,1004.89